Time;durP1;ratioP1;P1;durP2;ratioP2;P2;SDS_P1;SDS_P2;PMS_P1;PMS_P2;Temp;Humidity;BMP_temperature;BMP_pressure;BME280_temperature;BME280_humidity;BME280_pressure;Samples;Min_cycle;Max_cycle;Signal;HPM_P1;HPM_P2
2022/07/14 00:00:11;;;;;;;3.63;1.20;;;;;;;20.58;72.71;101191.44;5033659;28;20945;-68
2022/07/14 00:02:38;;;;;;;2.10;1.43;;;;;;;20.51;72.80;101189.31;5033801;28;20443;-68
2022/07/14 00:05:06;;;;;;;1.67;1.47;;;;;;;20.48;73.10;101191.97;5033702;28;20574;-68
2022/07/14 00:07:33;;;;;;;2.07;1.70;;;;;;;20.42;72.00;101189.47;5033316;28;21071;-68
2022/07/14 00:10:00;;;;;;;2.00;1.33;;;;;;;20.37;72.54;101194.44;5033316;28;20446;-69
2022/07/14 00:12:26;;;;;;;1.50;1.10;;;;;;;20.36;71.72;101195.56;5033335;28;20538;-69
2022/07/14 00:14:53;;;;;;;3.37;1.80;;;;;;;20.30;71.87;101191.47;5033263;28;20905;-68
2022/07/14 00:17:19;;;;;;;1.40;1.17;;;;;;;20.25;71.66;101195.28;5033217;28;20550;-68
2022/07/14 00:19:46;;;;;;;1.87;1.67;;;;;;;20.19;72.79;101193.94;5033273;28;20450;-71
2022/07/14 00:22:14;;;;;;;2.90;1.77;;;;;;;20.16;72.81;101198.19;5033565;28;20553;-67
2022/07/14 00:24:40;;;;;;;1.73;1.13;;;;;;;20.15;73.67;101195.81;5033355;28;20555;-69
2022/07/14 00:27:07;;;;;;;2.47;1.47;;;;;;;20.12;73.37;101202.00;5033254;28;20499;-69
2022/07/14 00:29:35;;;;;;;2.23;1.40;;;;;;;20.11;72.60;101195.69;5033379;28;20458;-69
2022/07/14 00:32:02;;;;;;;3.23;1.50;;;;;;;19.99;73.30;101201.25;5033392;28;20451;-68
2022/07/14 00:34:29;;;;;;;2.80;1.43;;;;;;;19.97;73.85;101200.81;5033355;28;20434;-69
2022/07/14 00:36:55;;;;;;;2.17;1.67;;;;;;;19.95;74.65;101199.53;5033283;28;20498;-68
2022/07/14 00:39:23;;;;;;;2.40;1.47;;;;;;;19.94;74.08;101198.75;5033351;28;20439;-68
2022/07/14 00:41:50;;;;;;;2.60;1.70;;;;;;;19.91;74.60;101205.72;5033044;28;20463;-69
2022/07/14 00:44:16;;;;;;;2.30;1.70;;;;;;;19.85;75.08;101204.38;5033266;28;20479;-68
2022/07/14 00:46:43;;;;;;;2.17;1.60;;;;;;;19.87;75.16;101212.28;5033083;28;20466;-69
2022/07/14 00:49:09;;;;;;;2.30;1.70;;;;;;;19.81;74.60;101219.97;5033203;28;20470;-68
2022/07/14 00:51:36;;;;;;;1.93;1.33;;;;;;;19.79;74.92;101218.72;5032859;28;21028;-69
2022/07/14 00:54:03;;;;;;;3.23;2.00;;;;;;;19.79;75.47;101224.22;5032864;28;20834;-68
2022/07/14 00:56:31;;;;;;;3.80;1.40;;;;;;;19.76;75.82;101228.47;5032712;28;20913;-69
2022/07/14 00:58:57;;;;;;;1.87;1.43;;;;;;;19.77;75.75;101230.06;5032841;28;20423;-68
2022/07/14 01:01:24;;;;;;;1.90;1.50;;;;;;;19.70;77.14;101235.38;5032747;28;20817;-66
2022/07/14 01:03:50;;;;;;;2.30;1.70;;;;;;;19.69;77.33;101227.47;5033170;28;20530;-68
2022/07/14 01:06:17;;;;;;;3.10;1.40;;;;;;;19.67;76.93;101230.56;5033105;28;20446;-68
2022/07/14 01:08:43;;;;;;;3.73;2.23;;;;;;;19.63;76.45;101232.41;5032858;28;20471;-68
2022/07/14 01:11:10;;;;;;;1.70;1.40;;;;;;;19.58;76.20;101225.16;5032734;28;20530;-67
2022/07/14 01:13:39;;;;;;;2.60;1.87;;;;;;;19.55;76.52;101228.59;5032832;28;20885;-68
2022/07/14 01:16:06;;;;;;;2.80;1.70;;;;;;;19.45;77.41;101237.31;5032984;28;20451;-68
2022/07/14 01:18:33;;;;;;;2.50;1.63;;;;;;;19.40;78.11;101238.34;5032590;28;20529;-69
2022/07/14 01:21:00;;;;;;;3.37;1.90;;;;;;;19.33;78.10;101238.13;5032712;28;20446;-68
2022/07/14 01:23:28;;;;;;;2.27;1.60;;;;;;;19.30;78.58;101238.81;5035354;28;20542;-69
2022/07/14 01:25:54;;;;;;;2.60;1.77;;;;;;;19.25;78.98;101246.47;5036668;28;20589;-68
2022/07/14 01:28:21;;;;;;;2.40;1.60;;;;;;;19.22;79.23;101247.97;5036361;28;21067;-68
2022/07/14 01:30:47;;;;;;;2.60;2.20;;;;;;;19.20;79.78;101233.78;5036339;28;20948;-68
2022/07/14 01:33:14;;;;;;;1.60;1.37;;;;;;;19.16;79.59;101246.59;5036346;28;21028;-68
2022/07/14 01:35:41;;;;;;;1.60;1.00;;;;;;;19.08;79.32;101245.56;5036548;28;20439;-68
2022/07/14 01:38:08;;;;;;;1.70;1.20;;;;;;;19.07;79.81;101245.91;5036517;28;20896;-68
2022/07/14 01:40:36;;;;;;;1.80;1.60;;;;;;;19.00;79.90;101241.00;5036430;28;20586;-68
2022/07/14 01:43:02;;;;;;;3.30;1.90;;;;;;;18.96;80.28;101245.56;5036115;28;20446;-68
2022/07/14 01:45:29;;;;;;;2.50;1.80;;;;;;;18.88;80.73;101247.25;5036203;28;20953;-69
2022/07/14 01:47:56;;;;;;;1.90;1.20;;;;;;;18.86;81.11;101246.81;5036055;28;20503;-68
2022/07/14 01:50:23;;;;;;;2.27;1.67;;;;;;;18.87;81.63;101248.41;5035752;28;20969;-68
2022/07/14 01:52:49;;;;;;;1.67;1.30;;;;;;;18.84;81.43;101248.28;5036251;28;20530;-68
2022/07/14 01:55:16;;;;;;;2.13;1.40;;;;;;;18.77;81.13;101257.09;5036139;28;20479;-67
2022/07/14 01:57:44;;;;;;;3.03;1.33;;;;;;;18.74;81.78;101252.28;5035683;28;20533;-67
2022/07/14 02:00:11;;;;;;;2.13;1.43;;;;;;;18.73;81.10;101253.41;5036231;28;20435;-67
2022/07/14 02:02:38;;;;;;;1.70;1.50;;;;;;;18.64;81.40;101256.22;5036048;28;20481;-68
2022/07/14 02:05:08;;;;;;;1.50;1.27;;;;;;;18.61;81.35;101256.91;5035897;28;20488;-68
2022/07/14 02:07:34;;;;;;;2.07;1.30;;;;;;;18.54;81.46;101267.59;5035901;28;20461;-68
2022/07/14 02:12:47;;;;;;;1.47;1.20;;;;;;;18.46;81.08;101270.44;5035699;28;20410;-68
2022/07/14 02:15:13;;;;;;;5.03;1.37;;;;;;;18.36;80.57;101255.19;5035948;28;20526;-68
2022/07/14 02:17:40;;;;;;;1.10;0.83;;;;;;;18.26;80.64;101270.13;5035800;28;20489;-69
2022/07/14 02:20:10;;;;;;;3.00;1.77;;;;;;;18.20;80.66;101266.00;5035772;28;20446;-69
2022/07/14 02:22:37;;;;;;;1.80;1.03;;;;;;;18.22;81.08;101280.19;5035652;28;20435;-68
2022/07/14 02:25:04;;;;;;;2.30;1.20;;;;;;;18.18;80.82;101275.69;5035674;28;20538;-68
2022/07/14 02:27:31;;;;;;;1.23;0.93;;;;;;;18.18;80.15;101281.19;5035551;28;20469;-67
2022/07/14 02:29:59;;;;;;;11.30;1.30;;;;;;;18.14;80.19;101270.06;5035319;28;20485;-67
2022/07/14 02:32:29;;;;;;;1.83;0.83;;;;;;;18.15;80.44;101271.72;5035471;28;20454;-68
2022/07/14 02:34:55;;;;;;;4.10;1.27;;;;;;;18.18;80.42;101275.69;5035147;28;20450;-68
2022/07/14 02:37:22;;;;;;;2.07;1.00;;;;;;;18.14;80.07;101267.34;5035423;28;20471;-68
2022/07/14 02:39:49;;;;;;;4.07;1.50;;;;;;;18.14;80.79;101273.63;5035096;28;20953;-68
2022/07/14 02:42:15;;;;;;;5.03;1.13;;;;;;;18.11;80.90;101276.25;5035353;28;20458;-67
2022/07/14 02:44:42;;;;;;;10.37;1.77;;;;;;;18.08;79.85;101288.69;5035210;28;20542;-68
2022/07/14 02:47:10;;;;;;;2.77;1.80;;;;;;;18.01;79.82;101280.16;5034873;28;21095;-67
2022/07/14 02:49:36;;;;;;;1.90;1.33;;;;;;;17.98;80.43;101288.28;5034806;28;20979;-68
2022/07/14 02:52:03;;;;;;;5.90;1.50;;;;;;;17.86;80.53;101292.53;5035091;28;20523;-67
2022/07/14 02:54:30;;;;;;;2.27;1.30;;;;;;;17.77;80.62;101301.97;5035033;28;20501;-68
2022/07/14 02:56:56;;;;;;;6.63;1.70;;;;;;;17.65;81.04;101299.91;5034657;28;20558;-67
2022/07/14 02:59:23;;;;;;;2.60;1.13;;;;;;;17.50;80.98;101292.25;5035070;28;20447;-67
2022/07/14 03:01:50;;;;;;;2.53;1.13;;;;;;;17.52;81.53;101301.75;5034991;28;20454;-67
2022/07/14 03:04:18;;;;;;;2.70;1.20;;;;;;;17.31;80.67;101296.22;5034993;28;20529;-67
2022/07/14 03:06:45;;;;;;;2.93;1.03;;;;;;;17.24;80.83;101301.38;5034373;28;21015;-67
2022/07/14 03:09:11;;;;;;;1.90;1.03;;;;;;;17.12;81.26;101298.53;5034614;28;20814;-67
2022/07/14 03:11:38;;;;;;;1.50;1.00;;;;;;;17.07;81.27;101298.72;5034647;28;20490;-67
2022/07/14 03:14:04;;;;;;;1.53;1.00;;;;;;;17.03;81.04;101298.56;5034738;28;20498;-67
2022/07/14 03:16:31;;;;;;;3.00;0.90;;;;;;;17.00;80.70;101301.13;5034595;28;20435;-67
2022/07/14 03:18:58;;;;;;;2.90;1.40;;;;;;;17.04;81.08;101293.88;5034744;28;20445;-66
2022/07/14 03:21:25;;;;;;;2.67;1.30;;;;;;;16.96;80.74;101297.47;5034646;28;20446;-67
2022/07/14 03:23:52;;;;;;;3.60;1.40;;;;;;;16.85;81.25;101297.00;5034251;28;20945;-68
2022/07/14 03:26:19;;;;;;;2.07;1.07;;;;;;;16.90;81.76;101294.09;5034098;28;21008;-66
2022/07/14 03:28:45;;;;;;;4.30;1.10;;;;;;;16.87;80.90;101306.50;5034138;28;21039;-68
2022/07/14 03:31:12;;;;;;;5.43;1.57;;;;;;;16.89;80.79;101308.91;5034242;28;20976;-66
2022/07/14 03:33:38;;;;;;;1.67;0.80;;;;;;;16.82;81.03;101309.44;5034302;28;20449;-67
2022/07/14 03:36:06;;;;;;;3.63;1.10;;;;;;;16.83;81.18;101313.75;5034690;28;20486;-67
2022/07/14 03:38:34;;;;;;;2.73;1.10;;;;;;;16.85;80.82;101322.44;5034163;28;20832;-68
2022/07/14 03:41:02;;;;;;;1.93;1.00;;;;;;;16.87;81.73;101327.59;5033983;28;20447;-67
2022/07/14 03:43:29;;;;;;;2.40;1.20;;;;;;;16.86;81.50;101331.44;5034131;28;20529;-68
2022/07/14 03:45:56;;;;;;;1.23;0.90;;;;;;;16.81;81.42;101329.69;5033329;28;20510;-67
2022/07/14 03:48:23;;;;;;;1.47;1.03;;;;;;;16.82;81.61;101328.56;5033975;28;20465;-68
2022/07/14 03:50:49;;;;;;;2.10;1.40;;;;;;;16.83;82.28;101338.38;5034034;28;20501;-67
2022/07/14 03:53:16;;;;;;;2.63;1.20;;;;;;;16.86;81.18;101324.03;5033957;28;20447;-66
2022/07/14 03:55:45;;;;;;;2.60;1.00;;;;;;;16.79;80.97;101331.16;5033938;28;20876;-68
2022/07/14 03:58:11;;;;;;;3.50;1.17;;;;;;;16.71;81.79;101329.19;5088770;22;20492;-72
2022/07/14 04:00:39;;;;;;;2.30;1.03;;;;;;;16.75;81.58;101339.19;5093625;28;21010;-72
2022/07/14 04:03:06;;;;;;;1.50;0.83;;;;;;;16.81;81.72;101337.88;5093743;28;20539;-72
2022/07/14 04:05:32;;;;;;;0.90;0.60;;;;;;;16.83;81.45;101332.91;5093878;28;20534;-72
2022/07/14 04:07:59;;;;;;;1.67;0.87;;;;;;;16.87;81.11;101336.63;5093839;28;20467;-71
2022/07/14 04:10:26;;;;;;;2.60;0.90;;;;;;;16.84;80.65;101331.78;5093559;28;21037;-71
2022/07/14 04:12:56;;;;;;;2.37;1.43;;;;;;;16.73;81.42;101335.97;5093825;28;20543;-72
2022/07/14 04:15:23;;;;;;;1.20;0.70;;;;;;;16.71;81.53;101331.94;5093760;28;20513;-72
2022/07/14 04:17:49;;;;;;;5.23;1.00;;;;;;;16.67;81.43;101334.50;5093325;28;20506;-72
2022/07/14 04:20:17;;;;;;;2.27;1.30;;;;;;;16.62;81.79;101335.47;5093688;28;20436;-72
2022/07/14 04:22:43;;;;;;;2.03;1.40;;;;;;;16.57;83.10;101340.31;5093625;28;20436;-72
2022/07/14 04:25:12;;;;;;;2.00;1.00;;;;;;;16.60;82.52;101351.44;5093638;28;20437;-73
2022/07/14 04:27:39;;;;;;;1.30;0.90;;;;;;;16.60;82.42;101345.13;5093188;28;20978;-73
2022/07/14 04:30:08;;;;;;;12.03;1.27;;;;;;;16.58;82.20;101340.00;5093264;28;20525;-73
2022/07/14 04:32:35;;;;;;;1.30;1.20;;;;;;;16.63;82.56;101347.22;5093221;28;20527;-72
2022/07/14 04:35:02;;;;;;;3.93;1.27;;;;;;;16.59;82.15;101341.59;5093464;28;20476;-71
2022/07/14 04:37:28;;;;;;;7.83;2.20;;;;;;;16.53;82.94;101340.16;5093310;28;20555;-71
2022/07/14 04:39:55;;;;;;;5.10;2.13;;;;;;;16.57;82.77;101351.25;5093491;28;20436;-71
2022/07/14 04:42:22;;;;;;;3.80;1.50;;;;;;;16.62;82.81;101343.69;5093439;28;20444;-70
2022/07/14 04:44:49;;;;;;;10.43;1.73;;;;;;;16.59;83.12;101346.25;5093107;28;20818;-71
2022/07/14 04:47:18;;;;;;;2.43;1.30;;;;;;;16.61;82.65;101346.75;5093371;28;20540;-78
2022/07/14 04:52:46;;;;;;;3.57;1.30;;;;;;;16.59;83.34;101347.06;5030879;28;20518;-69
2022/07/14 04:55:12;;;;;;;2.83;0.93;;;;;;;16.64;83.58;101346.09;5080433;28;20789;-70
2022/07/14 04:57:39;;;;;;;5.23;1.37;;;;;;;16.66;83.22;101341.13;5096370;28;20525;-70
2022/07/14 05:00:07;;;;;;;1.47;0.90;;;;;;;16.67;83.47;101336.44;5097527;28;20424;-70
2022/07/14 05:02:35;;;;;;;2.70;1.20;;;;;;;16.69;83.52;101343.22;5097423;28;20517;-70
2022/07/14 05:05:02;;;;;;;2.23;1.10;;;;;;;16.73;82.90;101341.44;5097349;28;20523;-69
2022/07/14 05:07:29;;;;;;;2.43;1.30;;;;;;;16.75;83.48;101339.19;5096918;28;20846;-70
2022/07/14 05:09:55;;;;;;;4.00;1.40;;;;;;;16.75;82.89;101347.41;5097302;28;20522;-70
2022/07/14 05:12:22;;;;;;;7.17;1.70;;;;;;;16.76;83.47;101349.00;5097257;28;20817;-69
2022/07/14 05:14:49;;;;;;;3.60;1.10;;;;;;;16.80;82.66;101352.72;5097177;28;20446;-70
2022/07/14 05:17:15;;;;;;;1.57;1.03;;;;;;;16.84;82.23;101345.47;5096700;28;20846;-70
2022/07/14 05:19:46;;;;;;;2.53;1.27;;;;;;;16.67;82.58;101350.91;5097070;28;20440;-70
2022/07/14 05:22:13;;;;;;;5.77;1.80;;;;;;;16.57;83.50;101351.25;5097125;28;20436;-70
2022/07/14 05:24:39;;;;;;;4.23;1.07;;;;;;;16.60;83.49;101356.06;5096980;28;20528;-70
2022/07/14 05:27:06;;;;;;;8.93;1.57;;;;;;;16.64;83.81;101357.88;5096871;28;20439;-71
2022/07/14 05:29:33;;;;;;;8.10;1.00;;;;;;;16.67;82.99;101356.41;5096891;28;20456;-71
2022/07/14 05:32:00;;;;;;;2.57;1.13;;;;;;;16.58;83.75;101355.59;5096895;28;20490;-71
2022/07/14 05:34:27;;;;;;;2.80;1.37;;;;;;;16.76;83.32;101359.16;5096755;28;20440;-71
2022/07/14 05:36:55;;;;;;;1.67;1.07;;;;;;;16.74;84.22;101351.28;5096696;28;20487;-72
2022/07/14 05:39:21;;;;;;;4.30;1.77;;;;;;;16.80;82.57;101357.38;5096396;28;20531;-71
2022/07/14 05:41:48;;;;;;;3.10;0.63;;;;;;;16.86;82.79;101365.09;5096679;28;20450;-71
2022/07/14 05:44:14;;;;;;;1.70;1.10;;;;;;;16.97;82.73;101370.25;5096651;28;20443;-71
2022/07/14 05:46:41;;;;;;;7.43;1.40;;;;;;;17.04;81.30;101365.06;5096548;28;20851;-71
2022/07/14 05:49:07;;;;;;;5.17;1.17;;;;;;;17.08;81.30;101361.34;5096180;28;20889;-73
2022/07/14 05:51:34;;;;;;;2.17;1.13;;;;;;;17.11;80.82;101368.09;5096421;28;20523;-76
2022/07/14 05:54:02;;;;;;;2.93;1.23;;;;;;;17.03;80.82;101368.94;5096642;28;21036;-71
2022/07/14 05:56:28;;;;;;;9.57;1.57;;;;;;;17.17;80.76;101371.47;5096332;28;20579;-72
2022/07/14 05:58:55;;;;;;;2.20;1.23;;;;;;;17.24;79.61;101371.78;5095962;28;20559;-72
2022/07/14 06:01:22;;;;;;;13.63;1.80;;;;;;;17.29;79.53;101372.41;5095986;28;20443;-73
2022/07/14 06:03:53;;;;;;;3.13;1.03;;;;;;;17.32;80.12;101377.22;5096139;28;20520;-72
2022/07/14 06:06:20;;;;;;;1.40;0.90;;;;;;;17.27;79.23;101368.41;5096210;28;20432;-72
2022/07/14 06:08:47;;;;;;;4.13;0.93;;;;;;;17.37;79.10;101377.06;5095000;28;20542;-73
2022/07/14 06:11:15;;;;;;;5.33;0.90;;;;;;;17.46;79.29;101378.97;5096059;28;20443;-72
2022/07/14 06:13:41;;;;;;;5.03;1.10;;;;;;;17.53;79.32;101379.25;5096016;28;20472;-73
2022/07/14 06:16:09;;;;;;;4.10;0.90;;;;;;;17.62;77.78;101374.56;5095535;28;21001;-73
2022/07/14 06:18:36;;;;;;;2.13;0.90;;;;;;;17.66;77.01;101383.69;5095665;28;20471;-76
2022/07/14 06:21:03;;;;;;;4.80;0.90;;;;;;;17.64;76.32;101384.03;5095893;28;20464;-73
2022/07/14 06:23:29;;;;;;;2.00;0.90;;;;;;;17.58;76.63;101376.34;5095813;28;20967;-72
2022/07/14 06:25:56;;;;;;;4.03;1.00;;;;;;;17.65;77.03;101373.88;5095512;28;20816;-73
2022/07/14 06:28:24;;;;;;;1.40;0.70;;;;;;;17.75;77.38;101368.06;5095645;28;20888;-73
2022/07/14 06:30:51;;;;;;;4.13;1.00;;;;;;;17.84;75.98;101357.88;5095680;28;20472;-73
2022/07/14 06:33:17;;;;;;;0.97;0.67;;;;;;;17.90;75.63;101364.75;5095367;28;20527;-73
2022/07/14 06:35:44;;;;;;;2.53;1.20;;;;;;;17.98;76.98;101365.03;5095238;28;20908;-73
2022/07/14 06:38:11;;;;;;;1.33;0.73;;;;;;;18.17;76.06;101373.63;5095532;28;20555;-73
2022/07/14 06:40:39;;;;;;;3.03;1.13;;;;;;;18.33;74.69;101373.84;5095529;28;20448;-72
2022/07/14 06:43:06;;;;;;;2.10;1.20;;;;;;;18.34;74.03;101381.72;5095221;28;20809;-73
2022/07/14 06:45:34;;;;;;;1.97;0.80;;;;;;;18.34;73.62;101376.25;5095421;28;20884;-72
2022/07/14 06:48:01;;;;;;;2.03;1.00;;;;;;;18.39;71.91;101378.78;5095359;28;20456;-75
2022/07/14 06:50:27;;;;;;;1.37;0.70;;;;;;;18.50;71.93;101378.38;5095357;28;20875;-73
2022/07/14 06:52:54;;;;;;;0.80;0.50;;;;;;;18.51;71.37;101372.56;5095364;28;20433;-72
2022/07/14 06:55:21;;;;;;;2.40;0.80;;;;;;;18.48;70.73;101377.91;5095248;28;20523;-72
2022/07/14 06:57:48;;;;;;;2.77;1.00;;;;;;;18.56;70.13;101374.31;5094614;28;20496;-72
2022/07/14 07:00:16;;;;;;;2.50;0.73;;;;;;;18.57;69.33;101375.91;5095157;28;20428;-72
2022/07/14 07:02:43;;;;;;;1.93;1.00;;;;;;;18.52;69.27;101379.66;5095026;28;20454;-72
2022/07/14 07:07:57;;;;;;;1.33;0.60;;;;;;;18.47;67.01;101377.13;5094751;28;20490;-72
2022/07/14 07:10:24;;;;;;;1.00;0.53;;;;;;;18.49;67.08;101369.34;5094960;28;20528;-72
2022/07/14 07:12:50;;;;;;;1.50;0.70;;;;;;;18.54;66.55;101371.88;5094527;28;20938;-72
2022/07/14 07:15:17;;;;;;;3.03;0.83;;;;;;;18.57;66.33;101371.22;5094920;28;20535;-73
2022/07/14 07:17:45;;;;;;;2.80;1.07;;;;;;;18.63;66.38;101369.06;5094725;28;20563;-72
2022/07/14 07:20:12;;;;;;;1.83;0.80;;;;;;;18.66;64.71;101357.41;5093416;28;20441;-72
2022/07/14 07:22:39;;;;;;;1.43;0.70;;;;;;;18.51;64.88;101361.59;5094602;28;20444;-72
2022/07/14 07:25:06;;;;;;;2.83;0.77;;;;;;;18.36;66.64;101360.25;5094691;28;20527;-74
2022/07/14 07:27:33;;;;;;;0.70;0.50;;;;;;;18.45;65.79;101351.16;5094533;28;20559;-73
2022/07/14 07:30:00;;;;;;;1.63;0.60;;;;;;;18.54;65.46;101349.13;5094651;28;20435;-72
2022/07/14 07:32:27;;;;;;;0.90;0.60;;;;;;;18.59;65.42;101341.50;5094530;28;20440;-72
2022/07/14 07:34:55;;;;;;;1.53;0.50;;;;;;;18.65;63.78;101339.34;5094488;28;20493;-72
2022/07/14 07:37:23;;;;;;;7.73;0.60;;;;;;;18.63;62.22;101344.34;5094279;28;20527;-72
2022/07/14 07:39:49;;;;;;;1.60;1.00;;;;;;;18.64;62.24;101343.25;5094387;28;20433;-72
2022/07/14 07:42:16;;;;;;;1.23;0.47;;;;;;;18.79;60.94;101333.59;5094366;28;20433;-73
2022/07/14 07:44:43;;;;;;;1.07;0.60;;;;;;;18.76;61.08;101328.78;5093966;28;20527;-73
2022/07/14 07:47:09;;;;;;;2.43;0.63;;;;;;;18.78;62.64;101324.56;5093902;28;21010;-72
2022/07/14 07:49:36;;;;;;;1.13;0.77;;;;;;;18.86;59.92;101328.38;5094197;28;20547;-72
2022/07/14 07:52:05;;;;;;;2.50;0.90;;;;;;;18.93;58.96;101327.81;5093877;28;20527;-72
2022/07/14 07:54:31;;;;;;;0.90;0.53;;;;;;;18.98;59.89;101328.38;5094121;28;20535;-73
2022/07/14 07:56:59;;;;;;;0.70;0.40;;;;;;;18.98;60.77;101330.31;5094045;28;20484;-71
2022/07/14 07:59:27;;;;;;;5.40;0.90;;;;;;;19.00;61.58;101322.56;5094031;28;20821;-72
2022/07/14 08:01:53;;;;;;;3.73;0.50;;;;;;;19.14;63.08;101323.84;5094018;28;20799;-72
2022/07/14 08:04:20;;;;;;;1.83;0.60;;;;;;;19.23;57.90;101336.69;5094030;28;20842;-71
2022/07/14 08:06:46;;;;;;;4.10;0.63;;;;;;;19.30;59.36;101314.91;5093907;28;20523;-72
2022/07/14 08:09:14;;;;;;;2.93;0.70;;;;;;;19.38;56.64;101325.81;5093496;28;20463;-74
2022/07/14 08:11:42;;;;;;;0.80;0.50;;;;;;;19.42;55.42;101318.47;5093511;28;20495;-72
2022/07/14 08:14:47;;;;;;;9.93;1.43;;;;;;;19.36;55.61;101319.06;5093765;28;20527;-72
2022/07/14 08:16:57;;;;;;;1.00;0.47;;;;;;;19.20;55.65;101315.38;5093210;28;20483;-72
2022/07/14 08:19:24;;;;;;;0.80;0.40;;;;;;;19.25;54.59;101313.19;5093801;28;20527;-70
2022/07/14 08:21:50;;;;;;;1.17;0.60;;;;;;;19.27;54.33;101310.94;5093459;28;20531;-71
2022/07/14 08:24:19;;;;;;;0.60;0.40;;;;;;;19.29;57.26;101313.31;5093661;28;20452;-74
2022/07/14 08:26:46;;;;;;;1.23;0.67;;;;;;;19.42;55.90;101317.69;5093642;28;20440;-72
2022/07/14 08:29:12;;;;;;;0.90;0.50;;;;;;;19.53;54.36;101318.03;5093550;28;20492;-72
2022/07/14 08:31:39;;;;;;;0.97;0.50;;;;;;;19.62;54.79;101313.25;5093253;28;20508;-72
2022/07/14 08:34:06;;;;;;;0.80;0.53;;;;;;;19.73;54.21;101311.63;5093536;28;20445;-71
2022/07/14 08:36:32;;;;;;;1.50;0.70;;;;;;;19.79;54.39;101309.44;5093144;28;20531;-71
2022/07/14 08:39:00;;;;;;;0.70;0.40;;;;;;;19.88;53.52;101308.19;5093138;28;21057;-72
2022/07/14 08:41:29;;;;;;;0.60;0.40;;;;;;;19.90;54.10;101299.59;5093557;28;20887;-72
2022/07/14 08:43:56;;;;;;;1.67;0.50;;;;;;;19.96;55.20;101297.38;5093382;28;20559;-72
2022/07/14 08:46:23;;;;;;;1.30;0.67;;;;;;;19.95;54.58;101302.09;5093382;28;20527;-72
2022/07/14 08:48:52;;;;;;;0.70;0.40;;;;;;;19.95;54.91;101287.53;5093356;28;20460;-72
2022/07/14 08:51:19;;;;;;;1.33;0.50;;;;;;;19.94;54.65;101288.69;5093066;28;20896;-72
2022/07/14 08:53:46;;;;;;;6.40;0.70;;;;;;;20.02;52.46;101293.28;5093002;28;21013;-72
2022/07/14 08:56:13;;;;;;;0.60;0.40;;;;;;;20.07;52.80;101285.56;5093314;28;20494;-72
2022/07/14 08:58:42;;;;;;;1.40;0.60;;;;;;;20.10;52.86;101292.34;5092682;28;20903;-72
2022/07/14 09:01:10;;;;;;;0.77;0.50;;;;;;;20.15;52.58;101290.13;5093044;28;20441;-72
2022/07/14 09:03:36;;;;;;;1.50;0.60;;;;;;;20.22;51.78;101284.03;5093225;28;20440;-72
2022/07/14 09:06:05;;;;;;;1.00;0.47;;;;;;;20.22;51.86;101281.28;5092903;28;20514;-72
2022/07/14 09:08:56;;;;;;;0.70;0.40;;;;;;;20.30;52.48;101280.31;5093104;28;20471;-72
2022/07/14 09:11:23;;;;;;;1.00;0.40;;;;;;;20.27;49.20;101274.72;5092827;28;20907;-72
2022/07/14 09:13:50;;;;;;;0.70;0.40;;;;;;;20.33;47.66;101276.88;5093006;28;20527;-72
2022/07/14 09:16:19;;;;;;;0.70;0.40;;;;;;;20.42;49.36;101266.53;5093147;28;20843;-72
2022/07/14 09:19:02;;;;;;;2.70;0.60;;;;;;;20.53;48.08;101272.34;5092965;28;20484;-72
2022/07/14 09:21:28;;;;;;;0.70;0.30;;;;;;;20.53;48.39;101260.53;5093124;28;20423;-72
2022/07/14 09:23:58;;;;;;;1.27;0.57;;;;;;;20.52;49.19;101264.44;5093036;28;20432;-72
2022/07/14 09:26:25;;;;;;;1.00;0.50;;;;;;;20.47;49.84;101256.41;5092759;28;20865;-75
2022/07/14 09:28:53;;;;;;;0.70;0.40;;;;;;;20.64;49.49;101256.13;5092546;28;20989;-72
2022/07/14 09:31:22;;;;;;;0.77;0.40;;;;;;;20.74;49.38;101243.78;5092950;28;20498;-72
2022/07/14 09:33:50;;;;;;;1.23;0.50;;;;;;;20.75;49.63;101245.38;5092925;28;20447;-72
2022/07/14 09:36:21;;;;;;;1.47;0.43;;;;;;;20.79;46.20;101238.81;5092654;28;20887;-72
2022/07/14 09:38:48;;;;;;;0.60;0.30;;;;;;;20.84;45.25;101244.03;5092740;28;20579;-72
2022/07/14 09:41:16;;;;;;;1.90;0.77;;;;;;;20.86;45.98;101230.75;5092860;28;20448;-72
2022/07/14 09:44:06;;;;;;;1.37;0.50;;;;;;;20.97;45.88;101232.94;5094125;28;21017;-72
2022/07/14 09:46:43;;;;;;;1.27;0.47;;;;;;;20.99;45.70;101234.22;5096350;28;20421;-72
2022/07/14 09:49:10;;;;;;;0.80;0.50;;;;;;;21.02;45.84;101222.47;5096584;28;20494;-72
2022/07/14 09:51:52;;;;;;;1.10;0.50;;;;;;;21.09;45.60;101222.63;5096495;28;20493;-72
2022/07/14 09:54:39;;;;;;;0.70;0.50;;;;;;;21.21;44.77;101232.78;5096563;28;20429;-72
2022/07/14 09:57:08;;;;;;;0.70;0.30;;;;;;;21.37;42.96;101227.25;5095832;28;21060;-72
2022/07/14 09:59:44;;;;;;;0.93;0.40;;;;;;;21.47;42.56;101226.72;5096416;28;20777;-72
2022/07/14 10:02:15;;;;;;;0.60;0.30;;;;;;;21.47;43.32;101226.72;5096467;28;20465;-72
2022/07/14 10:04:43;;;;;;;0.70;0.43;;;;;;;21.45;44.06;101220.75;5096323;28;20431;-72
2022/07/14 10:07:11;;;;;;;0.80;0.47;;;;;;;21.51;44.45;101218.50;5097584;28;20834;-72
2022/07/14 10:09:38;;;;;;;1.47;0.60;;;;;;;21.56;43.57;101215.44;5096132;28;20530;-72
2022/07/14 10:12:06;;;;;;;2.20;0.60;;;;;;;21.53;43.46;101216.19;5095818;28;20916;-72
2022/07/14 10:14:34;;;;;;;1.20;0.60;;;;;;;21.59;42.24;101220.25;5095951;28;20446;-72
2022/07/14 10:17:03;;;;;;;0.70;0.40;;;;;;;21.64;42.37;101219.97;5095572;28;20448;-72
2022/07/14 10:19:29;;;;;;;1.20;0.40;;;;;;;21.73;42.66;101222.53;5095941;28;20447;-72
2022/07/14 10:21:56;;;;;;;0.83;0.40;;;;;;;21.72;42.56;101221.72;5095951;28;20520;-72
2022/07/14 10:24:24;;;;;;;1.47;0.30;;;;;;;21.66;42.34;101223.97;5095894;28;20520;-72
2022/07/14 10:26:51;;;;;;;1.13;0.43;;;;;;;21.73;42.40;101217.00;5095831;28;20531;-72
2022/07/14 10:29:18;;;;;;;1.53;0.67;;;;;;;21.79;41.86;101216.38;5095782;28;20464;-72
2022/07/14 10:32:02;;;;;;;0.80;0.40;;;;;;;21.94;40.96;101222.19;5095747;28;20531;-72
2022/07/14 10:34:35;;;;;;;1.37;0.50;;;;;;;22.01;41.36;101227.84;5095479;28;20515;-72
2022/07/14 10:37:06;;;;;;;1.13;0.50;;;;;;;22.02;41.18;101223.94;5095292;28;20910;-72
2022/07/14 10:39:39;;;;;;;0.70;0.40;;;;;;;22.11;41.43;101219.00;5095461;28;20511;-72
2022/07/14 10:42:16;;;;;;;0.70;0.40;;;;;;;22.07;41.79;101221.66;5095799;28;20433;-72
2022/07/14 10:44:46;;;;;;;3.00;0.60;;;;;;;22.26;42.65;101222.84;5095864;28;20428;-72
2022/07/14 10:47:15;;;;;;;1.20;0.40;;;;;;;22.39;41.26;101224.28;5095811;28;20519;-72
2022/07/14 10:50:02;;;;;;;1.03;0.60;;;;;;;22.31;42.00;101214.25;5095526;28;20536;-72
2022/07/14 10:52:30;;;;;;;1.20;0.53;;;;;;;22.38;41.58;101206.91;5095344;28;20448;-72
2022/07/14 10:55:17;;;;;;;2.77;0.50;;;;;;;22.46;41.31;101199.56;5095109;28;20532;-72
2022/07/14 10:58:21;;;;;;;0.90;0.43;;;;;;;22.65;41.54;101199.50;5095026;28;20484;-72
2022/07/14 11:00:56;;;;;;;0.60;0.30;;;;;;;22.81;41.25;101204.13;5095272;28;20476;-72
2022/07/14 11:03:26;;;;;;;0.70;0.43;;;;;;;23.04;42.63;101195.84;5095444;28;20424;-72
2022/07/14 11:06:11;;;;;;;0.70;0.33;;;;;;;23.24;41.94;101197.34;5095241;28;20552;-72
2022/07/14 11:08:39;;;;;;;0.70;0.40;;;;;;;23.13;40.49;101194.41;5094671;28;20456;-72
2022/07/14 11:11:16;;;;;;;0.70;0.30;;;;;;;22.91;39.70;101189.72;5095403;28;20802;-73
2022/07/14 11:14:05;;;;;;;1.30;0.50;;;;;;;23.12;40.84;101198.34;5095085;28;20421;-72
2022/07/14 11:16:59;;;;;;;0.70;0.40;;;;;;;23.40;41.81;101197.94;5094795;28;20424;-72
2022/07/14 11:19:31;;;;;;;1.43;0.50;;;;;;;23.51;40.45;101186.25;5094827;28;20506;-71
2022/07/14 11:22:18;;;;;;;0.60;0.30;;;;;;;23.55;42.29;101167.72;5094857;28;20428;-71
2022/07/14 11:24:50;;;;;;;0.90;0.30;;;;;;;23.80;42.28;101170.84;5094691;28;20508;-71
2022/07/14 11:27:28;;;;;;;0.80;0.30;;;;;;;24.17;38.85;101173.63;5094632;28;20543;-69
2022/07/14 11:29:57;;;;;;;0.70;0.40;;;;;;;24.55;37.68;101175.22;5094497;28;20806;-74
2022/07/14 11:32:31;;;;;;;1.00;0.60;;;;;;;24.79;36.68;101173.84;5094243;28;20448;-73
2022/07/14 11:37:58;;;;;;;0.97;0.40;;;;;;;25.77;35.37;101167.75;5094378;28;20478;-71
2022/07/14 11:40:49;;;;;;;0.70;0.40;;;;;;;26.44;36.36;101167.13;5094663;28;20421;-74